createdAt,value
2022-11-28T00:02:26.098Z,4.50
2022-11-28T00:04:58.367Z,4.50
2022-11-28T00:07:30.480Z,4.50
2022-11-28T00:10:02.672Z,4.50
2022-11-28T00:12:35.903Z,4.50
2022-11-28T00:15:08.470Z,4.50
2022-11-28T00:17:41.633Z,4.50
2022-11-28T00:20:13.871Z,4.50
2022-11-28T00:22:45.906Z,4.60
2022-11-28T00:25:18.354Z,4.60
2022-11-28T00:27:50.385Z,4.60
2022-11-28T00:30:22.448Z,4.60
2022-11-28T00:32:54.368Z,4.60
2022-11-28T00:35:26.287Z,4.60
2022-11-28T00:37:58.238Z,4.60
2022-11-28T00:40:30.226Z,4.60
2022-11-28T00:43:02.153Z,4.60
2022-11-28T00:45:34.176Z,4.60
2022-11-28T00:48:06.413Z,4.60
2022-11-28T00:50:38.430Z,4.60
2022-11-28T00:53:10.479Z,4.60
2022-11-28T00:55:42.547Z,4.60
2022-11-28T00:58:14.646Z,4.60
2022-11-28T01:00:46.710Z,4.60
2022-11-28T01:03:18.761Z,4.60
2022-11-28T01:05:51.118Z,4.60
2022-11-28T01:08:23.029Z,4.60
2022-11-28T01:10:55.008Z,4.60
2022-11-28T01:13:27.242Z,4.60
2022-11-28T01:15:59.539Z,4.60
2022-11-28T01:18:32.227Z,4.50
2022-11-28T01:21:05.850Z,4.50
2022-11-28T01:23:38.040Z,4.50
2022-11-28T01:26:15.098Z,4.60
2022-11-28T01:28:50.458Z,4.60
2022-11-28T01:31:26.469Z,4.50
2022-11-28T01:34:00.206Z,4.50
2022-11-28T01:36:32.211Z,4.50
2022-11-28T01:39:04.625Z,4.50
2022-11-28T01:41:37.052Z,4.50
2022-11-28T01:44:13.550Z,4.50
2022-11-28T01:47:05.300Z,4.50
2022-11-28T01:49:37.946Z,4.50
2022-11-28T01:52:13.223Z,4.50
2022-11-28T01:54:53.381Z,4.50
2022-11-28T01:57:29.481Z,4.50
2022-11-28T02:00:17.635Z,4.50
2022-11-28T02:03:12.533Z,4.40
2022-11-28T02:05:51.360Z,4.40
2022-11-28T02:08:25.435Z,4.30
2022-11-28T02:11:25.368Z,4.30
2022-11-28T02:14:47.398Z,4.30
2022-11-28T02:18:00.990Z,4.30
2022-11-28T02:21:23.019Z,4.30
2022-11-28T02:24:20.406Z,4.40
2022-11-28T02:27:34.000Z,4.40
2022-11-28T02:30:51.456Z,4.40
2022-11-28T02:34:03.374Z,4.40
2022-11-28T02:36:58.793Z,4.50
2022-11-28T02:39:49.765Z,4.50
2022-11-28T02:42:55.641Z,4.50
2022-11-28T02:45:59.447Z,4.50
2022-11-28T02:48:55.340Z,4.50
2022-11-28T02:52:03.114Z,4.50
2022-11-28T02:54:42.366Z,4.50
2022-11-28T02:57:15.094Z,4.50
2022-11-28T02:59:51.890Z,4.50
2022-11-28T03:02:32.282Z,4.50
2022-11-28T03:05:46.080Z,4.50
2022-11-28T03:08:51.780Z,4.50
2022-11-28T03:11:42.485Z,4.50
2022-11-28T03:14:40.320Z,4.50
2022-11-28T03:17:46.403Z,4.50
2022-11-28T03:20:52.241Z,4.50
2022-11-28T03:23:43.917Z,4.50
2022-11-28T03:26:25.875Z,4.50
2022-11-28T03:29:15.446Z,4.40
2022-11-28T03:32:00.676Z,4.40
2022-11-28T03:34:44.623Z,4.40
2022-11-28T03:37:35.558Z,4.40
2022-11-28T03:40:16.000Z,4.40
2022-11-28T03:43:03.136Z,4.40
2022-11-28T03:45:45.194Z,4.40
2022-11-28T03:48:29.034Z,4.40
2022-11-28T03:51:10.087Z,4.40
2022-11-28T03:53:50.838Z,4.40
2022-11-28T03:56:54.595Z,4.40
2022-11-28T03:59:52.798Z,4.40
2022-11-28T04:02:36.214Z,4.40
2022-11-28T04:05:24.979Z,4.40
2022-11-28T04:08:27.087Z,4.40
2022-11-28T04:11:10.523Z,4.40
2022-11-28T04:14:10.242Z,4.30
2022-11-28T04:16:59.740Z,4.30
2022-11-28T04:19:50.974Z,4.30
2022-11-28T04:22:37.458Z,4.30
2022-11-28T04:25:19.425Z,4.30
2022-11-28T04:27:59.618Z,4.30
2022-11-28T04:30:39.042Z,4.30
2022-11-28T04:33:14.440Z,4.30
2022-11-28T04:35:51.780Z,4.30
2022-11-28T04:38:28.194Z,4.30
2022-11-28T04:41:07.132Z,4.30
2022-11-28T04:44:35.528Z,4.20
2022-11-28T04:47:12.619Z,4.20
2022-11-28T04:49:45.356Z,4.20
2022-11-28T04:52:23.871Z,4.20
2022-11-28T04:55:23.710Z,4.20
2022-11-28T04:58:21.524Z,4.20
2022-11-28T05:01:01.822Z,4.20
2022-11-28T05:03:42.284Z,4.20
2022-11-28T05:06:25.952Z,4.20
2022-11-28T05:09:03.749Z,4.20
2022-11-28T05:11:35.916Z,4.20
2022-11-28T05:14:08.052Z,4.20
2022-11-28T05:16:40.096Z,4.10
2022-11-28T05:19:12.182Z,4.10
2022-11-28T05:21:44.911Z,4.10
2022-11-28T05:24:18.001Z,4.10
2022-11-28T05:26:50.271Z,4.10
2022-11-28T05:29:22.488Z,4.10
2022-11-28T05:31:56.293Z,4.10
2022-11-28T05:34:31.041Z,4.20
2022-11-28T05:37:03.343Z,4.20
2022-11-28T05:39:35.582Z,4.10
2022-11-28T05:42:07.457Z,4.10
2022-11-28T05:44:39.569Z,4.10
2022-11-28T05:47:11.610Z,4.10
2022-11-28T05:49:44.242Z,4.10
2022-11-28T05:52:17.452Z,4.10
2022-11-28T05:54:49.481Z,4.10
2022-11-28T05:57:21.429Z,4.10
2022-11-28T05:59:53.439Z,4.10
2022-11-28T06:02:26.415Z,4.00
2022-11-28T06:04:59.933Z,4.00
2022-11-28T06:07:36.861Z,4.00
2022-11-28T06:10:09.363Z,4.00
2022-11-28T06:12:41.674Z,4.00
2022-11-28T06:15:13.706Z,4.00
2022-11-28T06:17:45.651Z,4.00
2022-11-28T06:20:17.812Z,4.00
2022-11-28T06:22:49.937Z,4.00
2022-11-28T06:25:22.020Z,3.90
2022-11-28T06:27:53.968Z,4.00
2022-11-28T06:30:26.223Z,3.90
2022-11-28T06:32:58.162Z,3.90
2022-11-28T06:35:30.122Z,3.90
2022-11-28T06:38:02.072Z,3.90
2022-11-28T06:40:34.008Z,3.90
2022-11-28T06:43:09.173Z,3.90
2022-11-28T06:45:41.256Z,3.90
2022-11-28T06:48:13.326Z,3.80
2022-11-28T06:50:45.500Z,3.90
2022-11-28T06:53:17.852Z,3.80
2022-11-28T06:55:50.137Z,3.80
2022-11-28T06:58:22.116Z,3.80
2022-11-28T07:00:54.229Z,3.90
2022-11-28T07:03:26.262Z,3.80
2022-11-28T07:06:04.193Z,3.80
2022-11-28T07:08:37.623Z,3.90
2022-11-28T07:11:16.033Z,3.90
2022-11-28T07:13:51.596Z,3.90
2022-11-28T07:16:27.086Z,3.90
2022-11-28T07:19:02.147Z,3.90
2022-11-28T07:21:34.598Z,3.90
2022-11-28T07:24:07.266Z,4.00
2022-11-28T07:26:39.339Z,4.00
2022-11-28T07:29:15.802Z,4.00
2022-11-28T07:31:48.862Z,4.00
2022-11-28T07:34:21.421Z,4.00
2022-11-28T07:36:53.465Z,4.00
2022-11-28T07:39:25.863Z,4.10
2022-11-28T07:41:57.961Z,4.10
2022-11-28T07:44:29.924Z,4.10
2022-11-28T07:47:02.244Z,4.10
2022-11-28T07:49:34.669Z,4.10
2022-11-28T07:52:06.849Z,4.10
2022-11-28T07:54:38.864Z,4.10
2022-11-28T07:57:13.189Z,4.10
2022-11-28T07:59:45.930Z,4.20
2022-11-28T08:02:19.274Z,4.20
2022-11-28T08:04:55.069Z,4.20
2022-11-28T08:07:27.711Z,4.30
2022-11-28T08:10:00.009Z,4.30
2022-11-28T08:12:32.185Z,4.30
2022-11-28T08:15:04.501Z,4.40
2022-11-28T08:17:36.757Z,4.40
2022-11-28T08:20:09.461Z,4.50
2022-11-28T08:22:42.140Z,4.50
2022-11-28T08:25:14.106Z,4.50
2022-11-28T08:27:46.161Z,4.60
2022-11-28T08:30:18.323Z,4.60
2022-11-28T08:32:51.217Z,4.60
2022-11-28T08:35:23.616Z,4.70
2022-11-28T08:38:01.440Z,4.70
2022-11-28T08:40:34.019Z,4.70
2022-11-28T08:43:07.479Z,4.80
2022-11-28T08:45:39.615Z,4.80
2022-11-28T08:48:11.654Z,4.80
2022-11-28T08:50:48.331Z,4.90
2022-11-28T08:53:20.729Z,4.90
2022-11-28T08:55:54.740Z,4.90
2022-11-28T08:58:27.395Z,5.00
2022-11-28T09:00:59.990Z,5.00
2022-11-28T09:03:32.570Z,5.10
2022-11-28T09:06:04.884Z,5.20
2022-11-28T09:08:37.055Z,5.20
2022-11-28T09:11:10.132Z,5.30
2022-11-28T09:13:45.220Z,5.30
2022-11-28T09:16:18.471Z,5.40
2022-11-28T09:18:51.304Z,5.40
2022-11-28T09:21:25.120Z,5.50
2022-11-28T09:23:57.200Z,5.50
2022-11-28T09:26:30.196Z,5.60
2022-11-28T09:29:04.300Z,5.70
2022-11-28T09:31:36.546Z,5.70
2022-11-28T09:34:09.224Z,5.70
2022-11-28T09:36:42.072Z,5.80
2022-11-28T09:39:14.618Z,5.80
2022-11-28T09:41:49.874Z,5.90
2022-11-28T09:44:46.022Z,5.90
2022-11-28T09:47:28.399Z,6.00
2022-11-28T09:50:15.388Z,6.00
2022-11-28T09:53:14.758Z,6.00
2022-11-28T09:56:09.426Z,6.00
2022-11-28T09:58:58.913Z,6.10
2022-11-28T10:02:02.888Z,6.10
2022-11-28T10:05:24.709Z,6.20
2022-11-28T10:08:16.362Z,6.20
2022-11-28T10:11:19.543Z,6.30
2022-11-28T10:14:24.899Z,6.30
2022-11-28T10:17:36.426Z,6.40
2022-11-28T10:20:36.607Z,6.50
2022-11-28T10:23:30.470Z,6.50
2022-11-28T10:26:31.206Z,6.50
2022-11-28T10:30:06.786Z,6.50
2022-11-28T10:33:10.274Z,6.50
2022-11-28T10:36:03.238Z,6.60
2022-11-28T10:38:36.992Z,6.60
2022-11-28T10:41:25.102Z,6.70
2022-11-28T10:44:22.638Z,6.80
2022-11-28T10:47:13.271Z,6.80
2022-11-28T10:50:16.252Z,6.90
2022-11-28T10:53:18.093Z,7.00
2022-11-28T10:56:34.394Z,7.00
2022-11-28T10:59:36.145Z,7.10
2022-11-28T11:02:45.470Z,7.10
2022-11-28T11:05:33.746Z,7.10
2022-11-28T11:08:28.312Z,7.10
2022-11-28T11:11:29.056Z,7.10
2022-11-28T11:14:12.261Z,7.20
2022-11-28T11:16:54.772Z,7.20
2022-11-28T11:19:38.840Z,7.20
2022-11-28T11:22:28.655Z,7.20
2022-11-28T11:25:14.546Z,7.20
2022-11-28T11:27:52.946Z,7.30
2022-11-28T11:30:38.847Z,7.30
2022-11-28T11:33:17.806Z,7.30
2022-11-28T11:35:51.207Z,7.30
2022-11-28T11:38:23.712Z,7.30
2022-11-28T11:41:31.900Z,7.30
2022-11-28T11:44:14.344Z,7.30
2022-11-28T11:47:05.785Z,7.30
2022-11-28T11:49:44.205Z,7.40
2022-11-28T11:52:23.614Z,7.40
2022-11-28T11:54:58.286Z,7.40
2022-11-28T11:57:51.338Z,7.40
2022-11-28T12:00:39.320Z,7.30
2022-11-28T12:03:46.904Z,7.30
2022-11-28T12:06:40.759Z,7.40
2022-11-28T12:09:25.652Z,7.40
2022-11-28T12:12:18.911Z,7.40
2022-11-28T12:14:56.902Z,7.50
2022-11-28T12:17:53.367Z,7.50
2022-11-28T12:21:13.282Z,7.40
2022-11-28T12:24:13.574Z,7.50
2022-11-28T12:27:15.769Z,7.50
2022-11-28T12:30:34.273Z,7.50
2022-11-28T12:33:58.984Z,7.60
2022-11-28T12:37:09.629Z,7.60
2022-11-28T12:40:04.422Z,7.70
2022-11-28T12:43:25.881Z,7.70
2022-11-28T12:46:47.923Z,7.80
2022-11-28T12:49:58.925Z,7.80
2022-11-28T12:53:19.425Z,7.80
2022-11-28T12:56:17.330Z,7.80
2022-11-28T12:59:42.708Z,7.80
2022-11-28T13:03:05.690Z,7.80
2022-11-28T13:06:00.350Z,7.80
2022-11-28T13:09:18.847Z,7.80
2022-11-28T13:12:29.575Z,7.80
2022-11-28T13:15:35.869Z,7.80
2022-11-28T13:18:50.210Z,7.90
2022-11-28T13:21:45.119Z,7.90
2022-11-28T13:25:12.047Z,8.00
2022-11-28T13:28:09.323Z,8.00
2022-11-28T13:31:07.708Z,8.00
2022-11-28T13:33:57.895Z,8.00
2022-11-28T13:40:05.864Z,8.00
2022-11-28T13:43:21.169Z,8.00
2022-11-28T13:46:11.034Z,8.00
2022-11-28T13:52:19.782Z,8.00
2022-11-28T13:55:37.373Z,7.90
2022-11-28T13:58:28.484Z,7.90
2022-11-28T14:01:21.659Z,7.90
2022-11-28T14:04:03.304Z,7.90
2022-11-28T14:06:59.564Z,7.90
2022-11-28T14:10:06.843Z,7.90
2022-11-28T14:13:17.132Z,7.90
2022-11-28T14:16:10.260Z,7.90
2022-11-28T14:19:33.435Z,7.90
2022-11-28T14:22:40.366Z,7.90
2022-11-28T14:25:39.738Z,7.90
2022-11-28T14:28:21.164Z,7.90
2022-11-28T14:31:05.619Z,7.90
2022-11-28T14:34:02.438Z,7.80
2022-11-28T14:36:42.002Z,7.80
2022-11-28T14:39:15.019Z,7.80
2022-11-28T14:42:08.668Z,7.80
2022-11-28T14:44:54.657Z,7.80
2022-11-28T14:47:34.719Z,7.80
2022-11-28T14:50:12.569Z,7.80
2022-11-28T14:53:36.156Z,7.80
2022-11-28T14:56:25.066Z,7.80
2022-11-28T14:59:02.453Z,7.80
2022-11-28T15:01:54.134Z,7.70
2022-11-28T15:04:51.138Z,7.70
2022-11-28T15:08:01.787Z,7.70
2022-11-28T15:10:54.390Z,7.70
2022-11-28T15:13:53.442Z,7.70
2022-11-28T15:16:50.415Z,7.70
2022-11-28T15:19:46.477Z,7.70
2022-11-28T15:22:41.862Z,7.60
2022-11-28T15:25:29.549Z,7.60
2022-11-28T15:28:19.376Z,7.60
2022-11-28T15:30:53.552Z,7.60
2022-11-28T15:33:29.271Z,7.60
2022-11-28T15:36:12.573Z,7.50
2022-11-28T15:38:57.989Z,7.50
2022-11-28T15:41:30.939Z,7.50
2022-11-28T15:44:04.120Z,7.40
2022-11-28T15:46:38.130Z,7.40
2022-11-28T15:49:32.562Z,7.40
2022-11-28T15:52:06.368Z,7.40
2022-11-28T15:54:51.939Z,7.30
2022-11-28T15:57:28.562Z,7.30
2022-11-28T16:00:05.492Z,7.30
2022-11-28T16:02:45.531Z,7.30
2022-11-28T16:05:21.547Z,7.30
2022-11-28T16:07:54.489Z,7.20
2022-11-28T16:10:34.474Z,7.20
2022-11-28T16:13:16.803Z,7.20
2022-11-28T16:15:56.203Z,7.20
2022-11-28T16:18:31.705Z,7.20
2022-11-28T16:21:04.878Z,7.20
2022-11-28T16:23:43.631Z,7.20
2022-11-28T16:26:30.347Z,7.10
2022-11-28T16:29:08.863Z,7.10
2022-11-28T16:31:45.648Z,7.10
2022-11-28T16:34:47.670Z,7.20
2022-11-28T16:37:25.407Z,7.20
2022-11-28T16:40:21.850Z,7.10
2022-11-28T16:42:56.971Z,7.10
2022-11-28T16:45:35.651Z,7.10
2022-11-28T16:48:19.483Z,7.10
2022-11-28T16:51:11.655Z,7.10
2022-11-28T16:54:29.365Z,7.10
2022-11-28T16:57:16.480Z,7.10
2022-11-28T16:59:53.274Z,7.10
2022-11-28T17:02:27.833Z,7.10
2022-11-28T17:05:00.873Z,7.10
2022-11-28T17:07:33.722Z,7.00
2022-11-28T17:10:07.951Z,7.10
2022-11-28T17:12:43.949Z,7.00
2022-11-28T17:15:20.263Z,7.10
2022-11-28T17:17:56.215Z,7.00
2022-11-28T17:20:30.467Z,7.00
2022-11-28T17:23:05.017Z,7.00
2022-11-28T17:25:37.890Z,7.00
2022-11-28T17:28:12.873Z,7.00
2022-11-28T17:30:52.041Z,7.00
2022-11-28T17:33:24.992Z,7.00
2022-11-28T17:35:59.046Z,7.00
2022-11-28T17:38:33.883Z,7.00
2022-11-28T17:41:12.588Z,7.00
2022-11-28T17:43:45.505Z,7.00
2022-11-28T17:46:17.953Z,7.00
2022-11-28T17:48:53.256Z,7.00
2022-11-28T17:51:26.563Z,7.00
2022-11-28T17:54:00.023Z,7.00
2022-11-28T17:56:33.960Z,7.00
2022-11-28T17:59:10.198Z,6.90
2022-11-28T18:01:44.928Z,7.00
2022-11-28T18:04:21.969Z,6.90
2022-11-28T18:06:55.038Z,7.00
2022-11-28T18:09:29.412Z,6.90
2022-11-28T18:12:02.769Z,7.00
2022-11-28T18:14:39.645Z,7.00
2022-11-28T18:17:16.226Z,7.00
2022-11-28T18:19:52.061Z,7.00
2022-11-28T18:22:29.214Z,6.90
2022-11-28T18:25:03.264Z,6.90
2022-11-28T18:27:37.133Z,6.90
2022-11-28T18:30:11.570Z,6.90
2022-11-28T18:32:49.783Z,7.00
2022-11-28T18:35:22.922Z,6.90
2022-11-28T18:37:56.229Z,6.90
2022-11-28T18:40:29.905Z,6.90
2022-11-28T18:43:04.532Z,6.90
2022-11-28T18:45:38.207Z,6.90
2022-11-28T18:48:11.365Z,6.90
2022-11-28T18:50:45.120Z,6.90
2022-11-28T18:53:20.261Z,6.90
2022-11-28T18:56:04.257Z,6.80
2022-11-28T18:58:41.206Z,6.90
2022-11-28T19:01:22.960Z,6.90
2022-11-28T19:04:09.858Z,6.80
2022-11-28T19:06:48.814Z,6.80
2022-11-28T19:09:22.999Z,6.80
2022-11-28T19:11:56.825Z,6.80
2022-11-28T19:14:36.762Z,6.80
2022-11-28T19:17:16.131Z,6.80
2022-11-28T19:19:51.070Z,6.80
2022-11-28T19:22:25.514Z,6.80
2022-11-28T19:24:59.337Z,6.80
2022-11-28T19:27:35.515Z,6.80
2022-11-28T19:30:09.403Z,6.80
2022-11-28T19:32:43.248Z,6.80
2022-11-28T19:35:19.972Z,6.80
2022-11-28T19:37:54.712Z,6.80
2022-11-28T19:40:29.376Z,6.80
2022-11-28T19:43:05.426Z,6.80
2022-11-28T19:45:42.851Z,6.80
2022-11-28T19:48:18.644Z,6.80
2022-11-28T19:50:54.476Z,6.80
2022-11-28T19:53:32.045Z,6.80
2022-11-28T19:56:09.712Z,6.80
2022-11-28T19:58:46.920Z,6.80
2022-11-28T20:01:23.371Z,6.70
2022-11-28T20:03:59.876Z,6.70
2022-11-28T20:06:36.600Z,6.80
2022-11-28T20:09:12.586Z,6.70
2022-11-28T20:11:46.511Z,6.80
2022-11-28T20:14:21.179Z,6.80
2022-11-28T20:16:54.730Z,6.70
2022-11-28T20:19:29.331Z,6.80
2022-11-28T20:22:03.511Z,6.70
2022-11-28T20:24:37.197Z,6.70
2022-11-28T20:27:10.956Z,6.70
2022-11-28T20:29:45.175Z,6.70
2022-11-28T20:32:19.296Z,6.70
2022-11-28T20:34:52.880Z,6.80
2022-11-28T20:37:29.334Z,6.70
2022-11-28T20:40:03.371Z,6.80
2022-11-28T20:42:40.106Z,6.80
2022-11-28T20:45:13.910Z,6.80
2022-11-28T20:47:49.949Z,6.80
2022-11-28T20:50:23.865Z,6.70
2022-11-28T20:52:59.786Z,6.70
2022-11-28T20:55:37.094Z,6.70
2022-11-28T20:58:10.657Z,6.70
2022-11-28T21:00:46.564Z,6.70
2022-11-28T21:03:24.533Z,6.70
2022-11-28T21:06:01.280Z,6.70
2022-11-28T21:08:35.155Z,6.70
2022-11-28T21:11:30.558Z,6.70
2022-11-28T21:14:08.502Z,6.70
2022-11-28T21:16:42.632Z,6.70
2022-11-28T21:19:16.190Z,6.70
2022-11-28T21:21:49.368Z,6.70
2022-11-28T21:24:22.755Z,6.70
2022-11-28T21:26:55.326Z,6.70
2022-11-28T21:29:27.984Z,6.70
2022-11-28T21:32:00.281Z,6.70
2022-11-28T21:34:34.114Z,6.70
2022-11-28T21:37:06.562Z,6.70
2022-11-28T21:39:39.249Z,6.70
2022-11-28T21:42:14.925Z,6.70
2022-11-28T21:44:50.904Z,6.70
2022-11-28T21:47:23.286Z,6.70
2022-11-28T21:49:55.456Z,6.70
2022-11-28T21:52:29.097Z,6.70
2022-11-28T21:55:02.383Z,6.70
2022-11-28T21:57:34.749Z,6.70
2022-11-28T22:00:16.602Z,6.70
2022-11-28T22:03:04.016Z,6.70
2022-11-28T22:05:38.127Z,6.70
2022-11-28T22:08:10.957Z,6.70
2022-11-28T22:10:42.983Z,6.70
2022-11-28T22:13:15.019Z,6.70
2022-11-28T22:15:47.294Z,6.70
2022-11-28T22:18:19.962Z,6.70
2022-11-28T22:21:00.489Z,6.70
2022-11-28T22:23:37.408Z,6.70
2022-11-28T22:26:11.163Z,6.70
2022-11-28T22:28:47.876Z,6.70
2022-11-28T22:31:25.784Z,6.70
2022-11-28T22:33:58.575Z,6.70
2022-11-28T22:36:32.435Z,6.70
2022-11-28T22:39:06.774Z,6.70
2022-11-28T22:41:40.955Z,6.70
2022-11-28T22:44:13.437Z,6.70
2022-11-28T22:46:45.542Z,6.70
2022-11-28T22:49:17.846Z,6.70
2022-11-28T22:51:49.960Z,6.70
2022-11-28T22:54:22.437Z,6.70
2022-11-28T22:56:55.371Z,6.70
2022-11-28T22:59:27.798Z,6.70
2022-11-28T23:02:02.756Z,6.70
2022-11-28T23:04:35.475Z,6.70
2022-11-28T23:07:08.647Z,6.70
2022-11-28T23:09:40.691Z,6.70
2022-11-28T23:12:12.895Z,6.70
2022-11-28T23:14:45.191Z,6.70
2022-11-28T23:17:19.970Z,6.70
2022-11-28T23:19:52.082Z,6.70
2022-11-28T23:22:24.641Z,6.70
2022-11-28T23:24:56.938Z,6.70
2022-11-28T23:27:29.361Z,6.70
2022-11-28T23:30:02.503Z,6.70
2022-11-28T23:32:35.293Z,6.70
2022-11-28T23:35:07.716Z,6.70
2022-11-28T23:37:40.070Z,6.80
2022-11-28T23:40:12.380Z,6.70
2022-11-28T23:42:44.630Z,6.70
2022-11-28T23:45:16.846Z,6.70
2022-11-28T23:47:48.810Z,6.70
2022-11-28T23:50:20.772Z,6.70
2022-11-28T23:52:52.724Z,6.70
2022-11-28T23:55:25.051Z,6.70
2022-11-28T23:57:57.195Z,6.70
